Time;durP1;ratioP1;P1;durP2;ratioP2;P2;SDS_P1;SDS_P2;PMS_P1;PMS_P2;Temp;Humidity;BMP_temperature;BMP_pressure;BME280_temperature;BME280_humidity;BME280_pressure;Samples;Min_cycle;Max_cycle;Signal;HPM_P1;HPM_P2
2021/05/25 00:00:18;;;;;;;;;;;;;;;21.28;41.70;100559.44;5034074;27;96706;-84
2021/05/25 00:02:45;;;;;;;;;;;;;;;21.16;41.51;100565.84;5033910;28;98806;-84
2021/05/25 00:05:13;;;;;;;;;;;;;;;21.13;40.92;100563.38;5034624;27;97754;-83
2021/05/25 00:07:39;;;;;;;;;;;;;;;21.19;40.83;100562.91;5033507;28;96626;-83
2021/05/25 00:10:06;;;;;;;;;;;;;;;21.10;40.21;100572.53;5018418;28;96548;-83
2021/05/25 00:12:33;;;;;;;;;;;;;;;21.03;40.16;100588.31;5031186;28;98938;-83
2021/05/25 00:14:59;;;;;;;;;;;;;;;20.61;40.28;100592.59;5032410;28;99166;-83
2021/05/25 00:17:25;;;;;;;;;;;;;;;20.17;40.78;100598.75;5034351;28;96652;-83
2021/05/25 00:19:51;;;;;;;;;;;;;;;20.32;40.53;100612.81;5030578;28;96703;-83
2021/05/25 00:22:19;;;;;;;;;;;;;;;20.49;40.25;100624.94;5026642;28;96755;-84
2021/05/25 00:24:44;;;;;;;;;;;;;;;19.94;41.03;100637.22;5010807;28;99293;-84
2021/05/25 00:27:11;;;;;;;;;;;;;;;20.07;40.85;100629.09;5018649;28;96876;-84
2021/05/25 00:29:37;;;;;;;;;;;;;;;19.93;40.53;100637.34;5020592;28;97137;-84
2021/05/25 00:32:03;;;;;;;;;;;;;;;20.07;40.70;100626.41;5017809;28;98912;-82
2021/05/25 00:34:29;;;;;;;;;;;;;;;19.71;41.32;100632.72;5012348;28;98041;-83
2021/05/25 00:36:55;;;;;;;;;;;;;;;19.42;41.77;100633.06;5016867;28;96903;-83
2021/05/25 00:39:21;;;;;;;;;;;;;;;18.86;43.23;100633.63;5016812;28;96931;-83
2021/05/25 00:41:46;;;;;;;;;;;;;;;19.63;42.05;100635.13;5011813;28;97758;-83
2021/05/25 00:44:13;;;;;;;;;;;;;;;19.46;42.46;100641.75;5019840;28;98884;-84
2021/05/25 00:46:39;;;;;;;;;;;;;;;19.87;42.12;100644.03;5018787;28;97384;-83
2021/05/25 00:49:05;;;;;;;;;;;;;;;19.27;43.72;100638.69;5015915;28;97074;-83
2021/05/25 00:51:31;;;;;;;;;;;;;;;19.44;43.86;100647.19;5021031;28;98960;-82
2021/05/25 00:53:57;;;;;;;;;;;;;;;19.61;43.74;100655.84;5035588;28;98053;-83
2021/05/25 00:56:23;;;;;;;;;;;;;;;19.85;43.98;100662.03;5026184;27;96996;-83
2021/05/25 00:58:48;;;;;;;;;;;;;;;19.65;44.30;100652.81;5019432;28;96869;-82
2021/05/25 01:01:14;;;;;;;;;;;;;;;19.42;45.00;100654.50;5014774;28;97843;-83
2021/05/25 01:03:41;;;;;;;;;;;;;;;19.60;45.24;100648.78;5018122;28;98058;-82
2021/05/25 01:06:07;;;;;;;;;;;;;;;19.66;45.16;100653.66;5014880;28;96818;-82
2021/05/25 01:08:34;;;;;;;;;;;;;;;19.92;44.93;100649.03;5015322;28;97163;-83
2021/05/25 01:11:03;;;;;;;;;;;;;;;19.76;45.26;100652.00;5007336;28;99019;-83
2021/05/25 01:13:30;;;;;;;;;;;;;;;19.65;45.62;100649.28;5014448;28;98084;-83
2021/05/25 01:15:57;;;;;;;;;;;;;;;19.80;45.63;100645.47;5021028;28;96908;-84
2021/05/25 01:18:23;;;;;;;;;;;;;;;19.53;46.22;100640.34;5027911;28;96664;-83
2021/05/25 01:20:50;;;;;;;;;;;;;;;19.42;46.76;100642.94;5025053;28;97804;-82
2021/05/25 01:23:17;;;;;;;;;;;;;;;19.67;46.13;100636.63;5030302;27;99449;-82
2021/05/25 01:25:45;;;;;;;;;;;;;;;19.44;47.24;100625.75;5009208;28;96655;-83
2021/05/25 01:28:11;;;;;;;;;;;;;;;19.67;46.57;100631.25;5011100;28;97150;-83
2021/05/25 01:30:39;;;;;;;;;;;;;;;19.43;47.05;100624.03;5012709;28;97939;-83
2021/05/25 01:33:05;;;;;;;;;;;;;;;19.79;46.97;100630.34;5009873;28;98048;-83
2021/05/25 01:35:32;;;;;;;;;;;;;;;19.80;46.44;100627.56;5012685;28;96830;-83
2021/05/25 01:37:58;;;;;;;;;;;;;;;19.60;48.09;100624.66;5016025;28;97197;-84
2021/05/25 01:40:26;;;;;;;;;;;;;;;19.58;47.40;100621.22;5014530;28;99162;-83
2021/05/25 01:42:52;;;;;;;;;;;;;;;19.48;47.71;100632.66;5003928;28;99755;-84
2021/05/25 01:45:18;;;;;;;;;;;;;;;19.49;49.06;100645.03;5014812;28;96989;-84
2021/05/25 01:47:45;;;;;;;;;;;;;;;19.50;49.62;100649.44;5018289;28;97126;-83
2021/05/25 01:50:12;;;;;;;;;;;;;;;19.46;49.31;100657.84;5014748;28;101608;-83
2021/05/25 01:52:39;;;;;;;;;;;;;;;19.20;49.47;100658.84;5015828;28;99550;-83
2021/05/25 01:55:07;;;;;;;;;;;;;;;19.27;49.20;100657.44;5012561;28;96682;-84
2021/05/25 01:57:34;;;;;;;;;;;;;;;19.60;49.50;100649.63;5021593;28;97505;-83
2021/05/25 02:00:00;;;;;;;;;;;;;;;19.11;50.26;100644.28;5023022;28;98881;-83
2021/05/25 02:02:25;;;;;;;;;;;;;;;18.93;51.21;100640.28;5039772;27;97640;-83
2021/05/25 02:04:51;;;;;;;;;;;;;;;19.22;50.12;100636.34;5021789;28;96903;-83
2021/05/25 02:07:18;;;;;;;;;;;;;;;19.60;49.37;100630.00;5009862;28;96917;-85
2021/05/25 02:09:44;;;;;;;;;;;;;;;19.58;49.83;100629.25;5002387;28;99103;-83
2021/05/25 02:12:14;;;;;;;;;;;;;;;19.50;51.49;100608.38;5015045;28;99127;-82
2021/05/25 02:14:41;;;;;;;;;;;;;;;19.18;53.22;100597.34;5011473;28;96933;-83
2021/05/25 02:17:07;;;;;;;;;;;;;;;19.32;52.47;100599.00;5011685;28;96812;-82
2021/05/25 02:19:33;;;;;;;;;;;;;;;19.11;53.90;100606.78;5013338;28;97898;-84
2021/05/25 02:21:59;;;;;;;;;;;;;;;19.33;53.30;100600.72;5014116;28;97585;-84
2021/05/25 02:24:25;;;;;;;;;;;;;;;18.98;53.93;100600.63;5017053;28;96903;-84
2021/05/25 02:26:51;;;;;;;;;;;;;;;18.73;54.73;100598.00;5018451;28;96832;-84
2021/05/25 02:29:16;;;;;;;;;;;;;;;18.69;54.52;100598.25;5004294;28;100165;-84
2021/05/25 02:31:43;;;;;;;;;;;;;;;19.11;53.44;100577.34;5019665;28;97654;-84
2021/05/25 02:34:09;;;;;;;;;;;;;;;19.02;53.98;100572.69;5020843;28;98369;-84
2021/05/25 02:36:35;;;;;;;;;;;;;;;18.63;55.66;100577.28;5020327;28;96667;-84
2021/05/25 02:39:02;;;;;;;;;;;;;;;18.87;53.99;100571.97;5019654;28;98088;-84
2021/05/25 02:41:28;;;;;;;;;;;;;;;19.19;53.14;100577.63;5023004;28;99161;-83
2021/05/25 02:43:54;;;;;;;;;;;;;;;18.73;54.52;100581.94;5036346;28;96536;-83
2021/05/25 02:46:20;;;;;;;;;;;;;;;18.87;55.51;100582.66;5033983;28;96728;-83
2021/05/25 02:48:46;;;;;;;;;;;;;;;18.81;55.86;100590.28;5036508;27;97677;-83
2021/05/25 02:51:12;;;;;;;;;;;;;;;18.75;55.40;100598.75;5028444;27;98621;-83
2021/05/25 02:53:38;;;;;;;;;;;;;;;18.69;55.06;100602.75;5011264;28;97406;-84
2021/05/25 02:56:04;;;;;;;;;;;;;;;18.82;55.26;100608.06;5008597;28;96969;-84
2021/05/25 02:58:30;;;;;;;;;;;;;;;18.96;55.20;100618.66;5016957;28;99028;-84
2021/05/25 03:00:56;;;;;;;;;;;;;;;18.78;55.75;100609.22;5011278;28;98095;-83
2021/05/25 03:03:21;;;;;;;;;;;;;;;19.03;54.62;100604.66;5004928;28;96902;-84
2021/05/25 03:05:48;;;;;;;;;;;;;;;18.81;54.48;100604.53;5012709;28;96789;-83
2021/05/25 03:08:15;;;;;;;;;;;;;;;18.64;55.14;100602.22;5001979;28;99296;-83
2021/05/25 03:10:42;;;;;;;;;;;;;;;18.73;55.80;100611.38;5009787;28;99170;-83
2021/05/25 03:13:08;;;;;;;;;;;;;;;18.86;55.76;100612.22;5024787;28;96802;-83
2021/05/25 03:15:35;;;;;;;;;;;;;;;18.79;56.07;100610.94;5014253;28;96833;-84
2021/05/25 03:18:02;;;;;;;;;;;;;;;18.88;55.65;100618.34;5013870;28;97816;-83
2021/05/25 03:20:28;;;;;;;;;;;;;;;18.72;55.02;100621.22;5014203;28;98561;-84
2021/05/25 03:22:55;;;;;;;;;;;;;;;18.97;54.69;100609.66;5019175;28;97242;-83
2021/05/25 03:25:21;;;;;;;;;;;;;;;19.11;54.74;100602.28;5011041;28;96628;-83
2021/05/25 03:27:47;;;;;;;;;;;;;;;18.83;54.82;100607.09;5001565;28;98845;-83
2021/05/25 03:30:14;;;;;;;;;;;;;;;18.80;54.84;100608.16;5013005;28;99052;-83
2021/05/25 03:32:40;;;;;;;;;;;;;;;18.77;54.88;100618.25;5011810;28;98412;-84
2021/05/25 03:35:07;;;;;;;;;;;;;;;18.62;54.83;100615.69;5005982;28;96884;-84
2021/05/25 03:37:33;;;;;;;;;;;;;;;18.76;54.25;100617.41;5013016;28;99292;-84
2021/05/25 03:40:00;;;;;;;;;;;;;;;18.91;54.65;100610.06;5015332;28;102149;-84
2021/05/25 03:42:26;;;;;;;;;;;;;;;18.85;54.11;100605.16;5015866;28;96799;-85
2021/05/25 03:44:51;;;;;;;;;;;;;;;19.08;53.62;100597.19;5014907;28;96974;-83
2021/05/25 03:47:18;;;;;;;;;;;;;;;18.87;54.18;100597.88;5013053;28;100406;-82
2021/05/25 03:49:46;;;;;;;;;;;;;;;18.76;54.89;100605.84;5022259;28;98810;-83
2021/05/25 03:52:12;;;;;;;;;;;;;;;18.74;54.87;100610.44;5015690;28;96872;-83
2021/05/25 03:54:42;;;;;;;;;;;;;;;18.84;54.54;100612.31;5012246;28;96946;-83
2021/05/25 03:57:13;;;;;;;;;;;;;;;18.71;54.53;100614.16;5002441;28;99459;-83
2021/05/25 03:59:38;;;;;;;;;;;;;;;18.76;54.57;100612.03;5010168;28;99245;-83
2021/05/25 04:02:04;;;;;;;;;;;;;;;19.19;53.43;100609.78;5007845;28;96742;-83
2021/05/25 04:04:30;;;;;;;;;;;;;;;18.79;53.90;100611.81;5026307;28;96764;-83
2021/05/25 04:06:56;;;;;;;;;;;;;;;19.00;53.71;100612.09;5020330;28;97658;-83
2021/05/25 04:09:21;;;;;;;;;;;;;;;19.04;53.17;100621.59;5019731;28;98755;-83
2021/05/25 04:11:47;;;;;;;;;;;;;;;19.08;52.56;100620.44;5020382;28;97298;-83
2021/05/25 04:14:14;;;;;;;;;;;;;;;19.12;51.89;100619.22;5011132;28;96938;-83
2021/05/25 04:16:40;;;;;;;;;;;;;;;19.03;51.40;100625.28;5017050;28;97810;-83
2021/05/25 04:19:06;;;;;;;;;;;;;;;19.09;51.59;100620.31;5004195;28;100696;-83
2021/05/25 04:21:32;;;;;;;;;;;;;;;19.10;51.56;100626.50;5007137;28;96795;-82
2021/05/25 04:23:58;;;;;;;;;;;;;;;19.28;51.16;100618.97;5013295;28;96884;-83
2021/05/25 04:26:24;;;;;;;;;;;;;;;19.30;50.84;100622.38;5011275;28;98819;-83
2021/05/25 04:28:50;;;;;;;;;;;;;;;19.28;51.05;100619.81;5004049;28;98655;-83
2021/05/25 04:31:17;;;;;;;;;;;;;;;19.01;51.81;100622.69;5008582;28;96926;-84
2021/05/25 04:33:42;;;;;;;;;;;;;;;19.02;51.99;100636.94;5011994;28;97182;-83
2021/05/25 04:36:08;;;;;;;;;;;;;;;19.05;51.90;100642.91;5010949;28;98318;-84
2021/05/25 04:38:34;;;;;;;;;;;;;;;18.97;51.72;100641.78;5014144;28;97818;-83
2021/05/25 04:41:00;;;;;;;;;;;;;;;19.00;51.48;100636.19;5003799;28;96770;-84
2021/05/25 04:43:25;;;;;;;;;;;;;;;18.88;50.69;100632.56;5006388;28;96809;-84
2021/05/25 04:45:51;;;;;;;;;;;;;;;18.69;51.38;100637.53;5014804;28;98268;-83
2021/05/25 04:48:18;;;;;;;;;;;;;;;18.52;51.01;100627.09;5012973;28;99084;-83
2021/05/25 04:50:44;;;;;;;;;;;;;;;18.84;50.71;100624.88;5013202;28;96726;-83
2021/05/25 04:53:09;;;;;;;;;;;;;;;18.99;50.38;100640.69;5010532;28;96743;-84
2021/05/25 04:55:36;;;;;;;;;;;;;;;18.87;50.32;100636.22;5019071;28;100943;-84
2021/05/25 04:58:01;;;;;;;;;;;;;;;19.18;49.67;100634.84;5021848;28;99184;-84
2021/05/25 05:00:28;;;;;;;;;;;;;;;19.36;48.52;100638.84;5016524;28;97072;-84
2021/05/25 05:02:54;;;;;;;;;;;;;;;19.59;48.40;100637.19;5034491;28;96813;-83
2021/05/25 05:05:22;;;;;;;;;;;;;;;19.45;48.39;100631.97;5015095;28;99126;-82
2021/05/25 05:07:47;;;;;;;;;;;;;;;19.31;48.30;100632.97;5020747;28;99109;-85
2021/05/25 05:10:14;;;;;;;;;;;;;;;19.61;47.70;100626.38;5015195;28;97539;-83
2021/05/25 05:12:40;;;;;;;;;;;;;;;19.03;49.62;100636.81;5017482;28;96834;-83
2021/05/25 05:15:06;;;;;;;;;;;;;;;19.20;48.48;100627.56;5016065;28;99502;-83
2021/05/25 05:17:32;;;;;;;;;;;;;;;19.13;48.42;100637.00;5016856;28;99191;-83
2021/05/25 05:19:58;;;;;;;;;;;;;;;18.90;49.15;100644.03;5017339;28;97203;-82
2021/05/25 05:22:25;;;;;;;;;;;;;;;18.50;49.60;100645.09;5021561;28;96864;-83
2021/05/25 05:24:51;;;;;;;;;;;;;;;18.74;49.29;100653.25;5029521;28;97928;-82
2021/05/25 05:27:17;;;;;;;;;;;;;;;18.29;50.34;100664.34;5013220;28;97472;-83
2021/05/25 05:29:44;;;;;;;;;;;;;;;18.38;50.75;100667.38;5018413;28;96911;-81
2021/05/25 05:32:09;;;;;;;;;;;;;;;18.56;49.55;100663.44;5031780;28;96792;-81
2021/05/25 05:34:36;;;;;;;;;;;;;;;18.57;49.59;100665.16;5029549;28;97042;-82
2021/05/25 05:37:04;;;;;;;;;;;;;;;18.80;49.07;100663.53;5017717;28;99316;-84
2021/05/25 05:39:31;;;;;;;;;;;;;;;19.02;48.40;100672.63;5014002;28;97846;-83
2021/05/25 05:41:57;;;;;;;;;;;;;;;19.04;48.19;100669.81;5020112;28;97650;-83
2021/05/25 05:44:23;;;;;;;;;;;;;;;18.82;48.91;100677.66;5025109;28;99317;-83
2021/05/25 05:46:49;;;;;;;;;;;;;;;18.93;48.53;100678.63;5033008;28;98865;-81
2021/05/25 05:49:15;;;;;;;;;;;;;;;18.78;48.88;100695.75;5021859;28;98766;-84
2021/05/25 05:51:41;;;;;;;;;;;;;;;18.73;48.94;100702.38;5019996;28;96939;-84
2021/05/25 05:54:07;;;;;;;;;;;;;;;18.88;47.25;100712.03;5024253;28;97875;-83
2021/05/25 05:56:34;;;;;;;;;;;;;;;18.87;47.54;100704.97;5021681;28;96981;-82
2021/05/25 05:59:00;;;;;;;;;;;;;;;18.76;47.42;100689.66;5014391;28;97016;-82
2021/05/25 06:01:25;;;;;;;;;;;;;;;18.33;46.98;100699.75;5011382;28;96961;-83
2021/05/25 06:03:52;;;;;;;;;;;;;;;18.13;47.26;100709.13;5014799;28;99464;-84
2021/05/25 06:06:18;;;;;;;;;;;;;;;18.29;46.22;100707.16;5017847;28;99868;-84
2021/05/25 06:08:43;;;;;;;;;;;;;;;18.37;46.37;100706.63;5026619;28;97616;-83
2021/05/25 06:11:09;;;;;;;;;;;;;;;18.30;46.07;100698.16;5022226;28;98362;-83
2021/05/25 06:13:36;;;;;;;;;;;;;;;18.76;45.18;100689.66;5014463;28;98716;-82
2021/05/25 06:16:03;;;;;;;;;;;;;;;18.62;45.36;100685.28;5018011;28;97673;-83
2021/05/25 06:18:29;;;;;;;;;;;;;;;18.39;45.11;100688.63;5005964;28;98759;-82
2021/05/25 06:20:55;;;;;;;;;;;;;;;18.40;45.10;100701.06;5010607;28;97295;-83
2021/05/25 06:23:21;;;;;;;;;;;;;;;18.74;44.45;100709.47;5017417;28;98869;-84
2021/05/25 06:25:47;;;;;;;;;;;;;;;18.15;45.44;100712.56;5016309;28;99000;-83
2021/05/25 06:28:13;;;;;;;;;;;;;;;18.40;45.07;100709.09;5015901;28;97311;-82
2021/05/25 06:30:40;;;;;;;;;;;;;;;18.28;45.48;100710.78;5014998;28;98608;-81
2021/05/25 06:33:06;;;;;;;;;;;;;;;17.53;46.61;100714.88;5018182;28;99838;-83
2021/05/25 06:35:33;;;;;;;;;;;;;;;18.42;45.00;100704.50;5022392;28;98662;-83
2021/05/25 06:38:00;;;;;;;;;;;;;;;18.49;43.98;100699.59;5020751;28;96828;-84
2021/05/25 06:40:25;;;;;;;;;;;;;;;18.44;44.53;100702.59;5014331;28;97752;-85
2021/05/25 06:42:53;;;;;;;;;;;;;;;19.00;43.24;100695.97;5025691;28;99254;-83
2021/05/25 06:45:21;;;;;;;;;;;;;;;19.48;41.75;100706.81;5026410;28;97724;-84
2021/05/25 06:47:47;;;;;;;;;;;;;;;19.14;41.96;100711.03;5026664;28;96915;-83
2021/05/25 06:50:14;;;;;;;;;;;;;;;19.09;42.41;100716.75;5024040;28;97224;-83
2021/05/25 06:52:40;;;;;;;;;;;;;;;19.19;42.12;100726.78;5031574;28;97816;-83
2021/05/25 06:55:06;;;;;;;;;;;;;;;18.79;42.25;100723.38;5025938;27;98128;-82
2021/05/25 06:57:33;;;;;;;;;;;;;;;18.81;42.20;100726.81;5025037;27;96624;-82
2021/05/25 06:59:59;;;;;;;;;;;;;;;18.91;41.86;100733.22;5030473;27;96804;-84
2021/05/25 07:02:25;;;;;;;;;;;;;;;18.51;41.79;100719.06;5029725;28;98033;-85
2021/05/25 07:04:52;;;;;;;;;;;;;;;18.83;41.61;100730.25;5013545;28;100605;-85
2021/05/25 07:07:18;;;;;;;;;;;;;;;18.44;41.13;100733.81;5008601;28;97209;-84
2021/05/25 07:09:44;;;;;;;;;;;;;;;19.04;40.22;100729.56;5006728;28;96866;-83
2021/05/25 07:12:13;;;;;;;;;;;;;;;19.41;40.01;100726.94;5009021;28;97919;-84
2021/05/25 07:14:39;;;;;;;;;;;;;;;19.63;38.91;100726.25;5007771;28;98603;-83
2021/05/25 07:17:06;;;;;;;;;;;;;;;19.60;39.31;100721.13;5010985;28;97221;-84
2021/05/25 07:19:32;;;;;;;;;;;;;;;19.58;39.17;100720.38;5010593;28;98904;-83
2021/05/25 07:22:00;;;;;;;;;;;;;;;19.20;39.06;100726.66;5007993;28;99856;-83
2021/05/25 07:24:25;;;;;;;;;;;;;;;18.61;39.70;100729.06;5006225;28;101601;-85
2021/05/25 07:26:51;;;;;;;;;;;;;;;18.58;39.83;100736.41;5011450;28;98789;-83
2021/05/25 07:29:34;;;;;;;;;;;;;;;19.01;38.56;100734.31;5022275;28;97017;-84
2021/05/25 07:32:01;;;;;;;;;;;;;;;18.68;38.56;100735.69;5024307;28;98853;-81
2021/05/25 07:34:27;;;;;;;;;;;;;;;18.81;38.26;100748.22;5020472;28;99180;-82
2021/05/25 07:36:53;;;;;;;;;;;;;;;18.86;38.08;100749.63;5028329;28;97337;-81
2021/05/25 07:39:20;;;;;;;;;;;;;;;18.83;38.40;100743.63;5028735;28;97597;-82
2021/05/25 07:41:46;;;;;;;;;;;;;;;18.47;38.50;100755.00;5028128;27;100433;-81
2021/05/25 07:44:12;;;;;;;;;;;;;;;18.77;38.34;100762.81;5024135;28;98064;-82
2021/05/25 07:46:38;;;;;;;;;;;;;;;18.69;38.85;100742.78;5021013;28;97078;-83
2021/05/25 07:49:04;;;;;;;;;;;;;;;18.86;38.53;100749.63;5021306;28;96958;-81
2021/05/25 07:51:31;;;;;;;;;;;;;;;19.18;37.78;100758.06;5026959;28;99333;-82
2021/05/25 07:53:58;;;;;;;;;;;;;;;19.16;37.58;100764.50;5022661;28;96781;-84
2021/05/25 07:56:25;;;;;;;;;;;;;;;19.06;37.86;100764.28;5021122;28;96637;-83
2021/05/25 07:58:53;;;;;;;;;;;;;;;18.80;37.72;100773.28;5020870;28;97773;-83
2021/05/25 08:01:28;;;;;;;;;;;;;;;18.19;38.56;100777.41;5018159;28;100538;-83
2021/05/25 08:04:00;;;;;;;;;;;;;;;18.77;37.82;100785.06;5014570;28;100423;-81
2021/05/25 08:06:27;;;;;;;;;;;;;;;18.64;38.20;100785.03;5018471;28;96671;-82
2021/05/25 08:09:12;;;;;;;;;;;;;;;19.04;37.26;100784.94;5027389;28;96702;-83
2021/05/25 08:11:39;;;;;;;;;;;;;;;19.30;36.91;100783.09;5024533;28;96900;-83
2021/05/25 08:19:33;;;;;;;;;;;;;;;19.05;36.51;100778.63;5037409;27;95992;-84
2021/05/25 08:22:00;;;;;;;;;;;;;;;19.30;36.57;100775.94;5031411;28;97895;-84
2021/05/25 08:24:26;;;;;;;;;;;;;;;19.15;36.53;100784.22;5033207;28;99185;-83
2021/05/25 08:26:55;;;;;;;;;;;;;;;18.98;36.89;100788.06;5026312;28;97164;-84
2021/05/25 08:29:22;;;;;;;;;;;;;;;19.32;36.65;100787.41;5020309;28;98247;-85
2021/05/25 08:37:49;;;;;;;;;;;;;;;18.72;36.76;100787.19;5004098;28;97155;-85
2021/05/25 08:40:16;;;;;;;;;;;;;;;18.37;37.50;100792.25;5021481;28;99007;-82
2021/05/25 08:42:43;;;;;;;;;;;;;;;18.83;36.79;100797.19;5020134;28;99496;-85
2021/05/25 08:45:10;;;;;;;;;;;;;;;19.38;36.08;100795.00;5018961;28;98531;-85
2021/05/25 08:47:36;;;;;;;;;;;;;;;19.59;35.53;100784.59;5014245;28;96950;-83
2021/05/25 08:50:03;;;;;;;;;;;;;;;19.89;34.88;100778.81;5010804;28;96890;-84
2021/05/25 08:52:30;;;;;;;;;;;;;;;20.20;34.56;100794.38;5011338;28;100333;-85
2021/05/25 08:54:56;;;;;;;;;;;;;;;20.81;33.70;100799.59;5011770;28;100248;-84
2021/05/25 08:57:22;;;;;;;;;;;;;;;20.66;33.31;100799.84;5013634;28;97098;-83
2021/05/25 08:59:49;;;;;;;;;;;;;;;20.74;33.90;100807.31;5028461;27;96887;-82
2021/05/25 09:02:15;;;;;;;;;;;;;;;20.92;32.64;100803.19;5004734;28;99419;-83
2021/05/25 09:04:56;;;;;;;;;;;;;;;20.90;33.02;100801.59;5010346;28;97993;-83
2021/05/25 09:07:35;;;;;;;;;;;;;;;20.03;33.69;100799.25;5013286;28;96908;-85
2021/05/25 09:10:01;;;;;;;;;;;;;;;20.43;33.76;100803.41;4992092;28;97296;-82
2021/05/25 09:12:32;;;;;;;;;;;;;;;20.63;33.71;100801.88;5003356;28;98845;-83
2021/05/25 09:14:59;;;;;;;;;;;;;;;19.87;34.69;100799.56;5009453;28;99266;-83
2021/05/25 09:17:25;;;;;;;;;;;;;;;20.89;32.57;100791.81;5008731;28;97887;-83
2021/05/25 09:19:52;;;;;;;;;;;;;;;20.74;32.93;100787.66;5007639;28;98203;-83
2021/05/25 09:22:25;;;;;;;;;;;;;;;20.51;33.62;100786.72;5007519;28;98195;-82
2021/05/25 09:24:51;;;;;;;;;;;;;;;20.90;32.80;100786.34;5013143;28;98833;-83
2021/05/25 09:27:27;;;;;;;;;;;;;;;21.16;32.34;100784.31;5011693;28;97265;-83
2021/05/25 09:29:53;;;;;;;;;;;;;;;21.35;31.87;100794.47;5014071;28;97286;-82
2021/05/25 09:32:20;;;;;;;;;;;;;;;21.94;30.07;100780.72;5010223;28;98072;-83
2021/05/25 09:34:46;;;;;;;;;;;;;;;21.98;30.48;100768.75;5011888;28;99737;-84
2021/05/25 09:37:12;;;;;;;;;;;;;;;21.66;30.97;100777.56;5014881;28;99254;-83
2021/05/25 09:39:53;;;;;;;;;;;;;;;22.30;29.87;100780.41;5025342;28;96769;-84
2021/05/25 09:42:19;;;;;;;;;;;;;;;21.52;30.57;100777.88;5014523;28;98589;-85
2021/05/25 09:44:56;;;;;;;;;;;;;;;22.07;29.24;100768.84;5013746;28;100626;-84
2021/05/25 09:47:32;;;;;;;;;;;;;;;23.08;27.86;100773.75;5010962;28;97510;-82
2021/05/25 09:49:58;;;;;;;;;;;;;;;22.34;29.03;100776.44;5014243;28;97372;-85
2021/05/25 09:52:35;;;;;;;;;;;;;;;22.31;29.33;100767.78;5020292;28;97972;-84
2021/05/25 09:55:09;;;;;;;;;;;;;;;22.08;29.36;100764.31;5021409;28;97919;-84
2021/05/25 09:57:44;;;;;;;;;;;;;;;21.15;30.86;100763.78;5021011;28;98524;-84
2021/05/25 10:00:24;;;;;;;;;;;;;;;20.40;31.47;100770.59;5028050;28;96802;-82
2021/05/25 10:03:09;;;;;;;;;;;;;;;20.56;32.32;100776.47;5016110;28;99649;-83
2021/05/25 10:05:36;;;;;;;;;;;;;;;20.42;32.00;100769.47;5019106;28;97797;-84
2021/05/25 10:08:03;;;;;;;;;;;;;;;20.16;31.65;100768.72;5017410;28;97062;-82
2021/05/25 10:10:29;;;;;;;;;;;;;;;20.39;32.52;100779.59;5016492;28;96870;-81
2021/05/25 10:12:56;;;;;;;;;;;;;;;20.11;32.59;100775.41;5014696;28;99029;-83
2021/05/25 10:15:23;;;;;;;;;;;;;;;18.69;36.69;100790.09;5020398;28;98919;-84
2021/05/25 10:17:57;;;;;;;;;;;;;;;18.64;37.84;100786.88;5014610;28;97720;-82
2021/05/25 10:20:23;;;;;;;;;;;;;;;19.26;37.66;100798.56;5018947;28;96970;-81
2021/05/25 10:22:49;;;;;;;;;;;;;;;19.30;37.53;100800.03;5015080;28;99282;-83
2021/05/25 10:25:16;;;;;;;;;;;;;;;19.41;37.46;100801.97;5013335;28;98219;-83
2021/05/25 10:27:45;;;;;;;;;;;;;;;19.07;38.07;100812.38;5011614;28;97183;-86
2021/05/25 10:30:25;;;;;;;;;;;;;;;18.64;38.22;100819.81;5016160;28;96920;-83
2021/05/25 10:33:01;;;;;;;;;;;;;;;18.41;39.02;100830.34;4997993;28;98447;-81
2021/05/25 10:35:48;;;;;;;;;;;;;;;18.70;38.67;100832.81;5021202;28;97756;-84
2021/05/25 10:38:15;;;;;;;;;;;;;;;17.69;40.63;100834.16;5016760;28;97652;-85
2021/05/25 10:40:44;;;;;;;;;;;;;;;17.25;42.33;100848.47;5018362;28;96981;-83
2021/05/25 10:43:29;;;;;;;;;;;;;;;17.56;41.70;100842.06;5013759;28;97767;-84
2021/05/25 10:46:16;;;;;;;;;;;;;;;17.76;42.13;100851.53;5015888;28;97175;-85
2021/05/25 10:48:55;;;;;;;;;;;;;;;18.43;41.95;100831.97;5014015;28;96869;-84
2021/05/25 10:51:25;;;;;;;;;;;;;;;18.07;42.77;100834.38;5009583;28;96849;-82
2021/05/25 10:54:08;;;;;;;;;;;;;;;18.69;43.55;100841.81;5011724;28;98961;-85
2021/05/25 10:56:36;;;;;;;;;;;;;;;18.80;43.53;100837.53;4998334;28;100074;-81
2021/05/25 10:59:04;;;;;;;;;;;;;;;18.40;42.64;100824.13;5012583;28;96994;-83
2021/05/25 11:01:31;;;;;;;;;;;;;;;18.73;43.88;100825.53;5010007;28;97642;-83
2021/05/25 11:04:06;;;;;;;;;;;;;;;18.97;42.88;100826.53;5009134;28;98903;-83
2021/05/25 11:06:33;;;;;;;;;;;;;;;19.05;41.60;100816.13;5013560;28;98150;-82
2021/05/25 11:09:13;;;;;;;;;;;;;;;19.60;44.03;100802.41;5019100;28;96715;-84
2021/05/25 11:11:41;;;;;;;;;;;;;;;19.31;43.75;100809.81;5026020;28;96915;-83
2021/05/25 11:14:12;;;;;;;;;;;;;;;20.12;42.72;100814.69;5024203;28;101018;-83
2021/05/25 11:16:39;;;;;;;;;;;;;;;20.44;40.45;100802.44;5025058;28;98312;-85
2021/05/25 11:19:44;;;;;;;;;;;;;;;20.13;40.63;100800.31;5027426;28;96672;-84
2021/05/25 11:22:22;;;;;;;;;;;;;;;20.40;39.27;100798.28;5027156;28;97123;-85
2021/05/25 11:24:57;;;;;;;;;;;;;;;20.93;39.32;100804.91;5019411;28;101410;-84
2021/05/25 11:27:35;;;;;;;;;;;;;;;20.84;40.14;100808.31;5010784;28;99034;-83
2021/05/25 11:30:06;;;;;;;;;;;;;;;20.14;40.81;100805.56;5016578;28;96762;-85
2021/05/25 11:32:37;;;;;;;;;;;;;;;19.91;40.37;100819.78;5010335;28;97229;-84
2021/05/25 11:35:05;;;;;;;;;;;;;;;19.77;41.05;100823.47;5010462;28;99340;-84
2021/05/25 11:37:32;;;;;;;;;;;;;;;19.11;43.72;100813.03;5012024;28;98626;-82
2021/05/25 11:39:58;;;;;;;;;;;;;;;18.86;45.49;100800.47;5007792;28;97390;-82
2021/05/25 11:42:25;;;;;;;;;;;;;;;18.34;45.82;100797.78;5011590;28;98052;-82
2021/05/25 11:44:53;;;;;;;;;;;;;;;19.33;46.70;100797.16;5004452;28;100263;-83
2021/05/25 11:47:19;;;;;;;;;;;;;;;18.94;45.97;100813.34;5010469;28;99176;-83
2021/05/25 11:49:45;;;;;;;;;;;;;;;19.22;49.68;100804.25;5016216;28;96788;-84
2021/05/25 11:52:17;;;;;;;;;;;;;;;19.36;47.34;100809.50;5017524;28;96582;-83
2021/05/25 11:54:43;;;;;;;;;;;;;;;19.66;46.30;100807.31;5011493;28;98950;-82
2021/05/25 11:57:26;;;;;;;;;;;;;;;19.17;48.41;100811.72;5010678;28;99263;-85
2021/05/25 11:59:53;;;;;;;;;;;;;;;19.28;47.56;100811.84;5005771;28;98220;-83
2021/05/25 12:02:23;;;;;;;;;;;;;;;19.99;46.02;100817.41;5010001;28;97948;-84
2021/05/25 12:04:54;;;;;;;;;;;;;;;20.59;46.71;100809.34;5019265;28;99005;-85
2021/05/25 12:07:21;;;;;;;;;;;;;;;20.69;43.90;100807.63;5020329;28;98960;-82
2021/05/25 12:09:52;;;;;;;;;;;;;;;20.83;42.37;100787.78;5019905;28;98156;-82
2021/05/25 12:12:22;;;;;;;;;;;;;;;20.98;40.68;100791.13;5017517;28;97403;-81
2021/05/25 12:14:48;;;;;;;;;;;;;;;20.84;39.91;100792.19;5016307;28;98972;-81
2021/05/25 12:17:20;;;;;;;;;;;;;;;20.96;41.63;100795.75;5013285;28;101039;-83
2021/05/25 12:19:53;;;;;;;;;;;;;;;20.83;39.98;100786.94;5019050;28;96672;-82
2021/05/25 12:22:30;;;;;;;;;;;;;;;20.74;43.70;100784.97;5013655;28;97785;-81
2021/05/25 12:25:12;;;;;;;;;;;;;;;20.63;43.72;100785.78;5008818;28;102298;-79
2021/05/25 12:27:39;;;;;;;;;;;;;;;20.59;42.19;100776.25;5008850;28;100112;-82
2021/05/25 12:30:11;;;;;;;;;;;;;;;20.45;40.89;100768.41;5014388;28;97223;-81
2021/05/25 12:32:38;;;;;;;;;;;;;;;20.53;40.12;100766.00;5011107;28;97520;-82
2021/05/25 12:35:05;;;;;;;;;;;;;;;20.80;40.97;100758.50;5007534;28;101443;-83
2021/05/25 12:37:31;;;;;;;;;;;;;;;20.94;40.66;100766.31;5010789;28;97565;-79
2021/05/25 12:40:00;;;;;;;;;;;;;;;21.50;40.99;100758.31;5012119;28;98431;-82
2021/05/25 12:42:27;;;;;;;;;;;;;;;21.67;37.45;100748.84;5029352;28;96818;-82
2021/05/25 12:45:03;;;;;;;;;;;;;;;21.90;34.80;100750.53;5013807;28;100117;-83
2021/05/25 12:47:29;;;;;;;;;;;;;;;22.32;33.27;100756.03;5011738;28;99738;-83
2021/05/25 12:50:07;;;;;;;;;;;;;;;21.94;32.33;100740.34;5009618;28;96970;-83